createdAt,value
2019-01-21T00:01:48.049Z,26.65
2019-01-21T00:04:36.996Z,29.82
2019-01-21T00:07:25.887Z,25.37
2019-01-21T00:10:14.768Z,24.72
2019-01-21T00:19:13.276Z,36.98
2019-01-21T00:24:56.480Z,39.05
2019-01-21T00:27:45.328Z,29.33
2019-01-21T00:30:26.904Z,31.57
2019-01-21T00:33:15.713Z,34.23
2019-01-21T00:36:04.580Z,30.30
2019-01-21T00:38:53.403Z,26.63
2019-01-21T00:41:42.201Z,29.12
2019-01-21T00:44:24.251Z,41.05
2019-01-21T00:47:13.047Z,29.98
2019-01-21T00:50:01.861Z,29.37
2019-01-21T00:52:50.727Z,31.03
2019-01-21T00:55:39.609Z,29.85
2019-01-21T00:58:28.420Z,30.80
2019-01-21T01:01:17.295Z,28.98
2019-01-21T01:04:06.670Z,20.70
2019-01-21T01:06:55.553Z,24.35
2019-01-21T01:09:44.399Z,31.73
2019-01-21T01:12:33.248Z,27.25
2019-01-21T01:15:22.103Z,23.27
2019-01-21T01:18:11.067Z,24.00
2019-01-21T01:20:59.933Z,25.57
2019-01-21T01:23:48.873Z,24.53
2019-01-21T01:26:38.161Z,24.15
2019-01-21T01:29:46.038Z,23.73
2019-01-21T01:32:27.648Z,25.00
2019-01-21T01:38:31.280Z,23.07
2019-01-21T01:41:20.131Z,18.85
2019-01-21T01:47:16.756Z,20.75
2019-01-21T01:50:26.539Z,29.80
2019-01-21T01:56:23.234Z,23.47
2019-01-21T01:59:12.119Z,22.50
2019-01-21T02:02:00.984Z,26.05
2019-01-21T02:04:49.884Z,21.37
2019-01-21T02:07:38.698Z,24.90
2019-01-21T02:10:27.778Z,24.70
2019-01-21T02:13:16.609Z,27.67
2019-01-21T02:16:05.492Z,31.62
2019-01-21T02:18:54.291Z,21.10
2019-01-21T02:24:58.969Z,24.98
2019-01-21T02:28:28.196Z,30.30
2019-01-21T02:31:40.931Z,23.73
2019-01-21T02:34:48.978Z,30.68
2019-01-21T02:38:16.486Z,21.97
2019-01-21T02:41:26.237Z,21.80
2019-01-21T02:44:53.746Z,26.20
2019-01-21T02:48:03.460Z,24.02
2019-01-21T02:51:30.960Z,23.95
2019-01-21T02:54:58.464Z,23.53
2019-01-21T02:58:25.946Z,23.80
2019-01-21T03:01:35.666Z,15.53
2019-01-21T03:05:03.176Z,23.50
2019-01-21T03:08:12.929Z,21.93
2019-01-21T03:11:22.650Z,24.15
2019-01-21T03:14:32.353Z,23.40
2019-01-21T03:17:42.128Z,18.32
2019-01-21T03:21:09.644Z,16.85
2019-01-21T03:24:37.136Z,26.00
2019-01-21T03:27:46.853Z,28.40
2019-01-21T03:34:13.056Z,22.57
2019-01-21T03:36:59.347Z,20.90
2019-01-21T03:40:26.954Z,21.27
2019-01-21T03:43:54.469Z,22.07
2019-01-21T03:46:37.841Z,23.38
2019-01-21T03:50:05.568Z,21.70
2019-01-21T03:53:15.337Z,24.50
2019-01-21T03:56:25.261Z,21.35
2019-01-21T03:59:35.011Z,20.80
2019-01-21T04:02:44.805Z,17.00
2019-01-21T04:05:54.604Z,24.55
2019-01-21T04:09:22.176Z,22.97
2019-01-21T04:12:31.973Z,19.23
2019-01-21T04:15:41.834Z,21.05
2019-01-21T04:18:51.574Z,25.08
2019-01-21T04:22:19.125Z,21.45
2019-01-21T04:25:28.835Z,19.60
2019-01-21T04:28:56.323Z,28.27
2019-01-21T04:32:06.052Z,22.60
2019-01-21T04:35:15.752Z,20.23
2019-01-21T04:38:43.260Z,18.67
2019-01-21T04:41:53.158Z,20.25
2019-01-21T04:45:20.641Z,25.85
2019-01-21T04:48:03.841Z,22.27
2019-01-21T04:51:13.548Z,28.32
2019-01-21T04:54:25.037Z,17.47
2019-01-21T04:57:52.524Z,25.48
2019-01-21T05:01:02.302Z,19.90
2019-01-21T05:04:29.805Z,24.60
2019-01-21T05:07:57.297Z,23.57
2019-01-21T05:11:07.065Z,24.77
2019-01-21T05:14:34.537Z,17.82
2019-01-21T05:17:44.260Z,27.07
2019-01-21T05:21:11.760Z,31.68
2019-01-21T05:24:21.514Z,25.33
2019-01-21T05:27:49.029Z,24.98
2019-01-21T05:31:16.569Z,22.87
2019-01-21T05:34:26.335Z,22.30
2019-01-21T05:37:36.105Z,18.20
2019-01-21T05:40:45.852Z,24.15
2019-01-21T05:43:55.625Z,20.57
2019-01-21T05:47:23.130Z,25.12
2019-01-21T05:50:32.853Z,23.38
2019-01-21T05:54:00.601Z,26.47
2019-01-21T05:57:10.328Z,26.97
2019-01-21T06:00:37.841Z,23.27
2019-01-21T06:04:05.578Z,22.43
2019-01-21T06:07:33.092Z,22.82
2019-01-21T06:10:42.819Z,23.18
2019-01-21T06:13:52.615Z,20.53
2019-01-21T06:17:02.323Z,28.42
2019-01-21T06:20:29.837Z,29.20
2019-01-21T06:23:57.327Z,22.10
2019-01-21T06:27:24.837Z,21.40
2019-01-21T06:30:34.588Z,22.90
2019-01-21T06:34:02.099Z,22.20
2019-01-21T06:36:47.755Z,21.62
2019-01-21T06:39:57.510Z,24.05
2019-01-21T06:43:25.024Z,24.57
2019-01-21T06:46:52.776Z,32.03
2019-01-21T06:50:20.262Z,25.68
2019-01-21T06:53:47.752Z,23.43
2019-01-21T06:57:15.261Z,27.40
2019-01-21T07:00:42.779Z,23.52
2019-01-21T07:03:52.653Z,26.90
2019-01-21T07:07:20.134Z,28.07
2019-01-21T07:10:47.629Z,20.92
2019-01-21T07:14:15.144Z,23.13
2019-01-21T07:20:55.160Z,24.87
2019-01-21T07:24:04.971Z,26.10
2019-01-21T07:27:14.682Z,26.80
2019-01-21T07:30:42.169Z,24.07
2019-01-21T07:33:51.907Z,32.93
2019-01-21T07:36:37.836Z,32.03
2019-01-21T07:40:05.347Z,32.10
2019-01-21T07:43:15.111Z,29.90
2019-01-21T07:46:24.842Z,36.20
2019-01-21T07:49:52.330Z,29.85
2019-01-21T07:53:19.843Z,37.80
2019-01-21T07:56:29.562Z,33.20
2019-01-21T07:59:57.087Z,28.97
2019-01-21T08:03:06.908Z,30.37
2019-01-21T08:06:16.617Z,30.88
2019-01-21T08:09:26.381Z,36.27
2019-01-21T08:12:53.892Z,31.05
2019-01-21T08:16:21.380Z,31.02
2019-01-21T08:19:48.886Z,33.57
2019-01-21T08:23:16.379Z,30.57
2019-01-21T08:26:26.147Z,29.60
2019-01-21T08:29:53.638Z,33.13
2019-01-21T08:33:21.145Z,35.80
2019-01-21T08:39:23.149Z,25.05
2019-01-21T08:42:51.002Z,27.13
2019-01-21T08:46:21.476Z,39.35
2019-01-21T08:49:30.765Z,32.50
2019-01-21T08:52:59.170Z,36.08
2019-01-21T08:56:09.038Z,40.85
2019-01-21T08:59:18.709Z,30.37
2019-01-21T09:02:28.427Z,33.65
2019-01-21T09:05:55.931Z,33.13
2019-01-21T09:09:05.634Z,31.45
2019-01-21T09:12:15.349Z,26.68
2019-01-21T09:15:42.858Z,26.40
2019-01-21T09:19:10.366Z,34.93
2019-01-21T09:22:20.126Z,38.80
2019-01-21T09:25:29.843Z,43.20
2019-01-21T09:28:39.593Z,31.73
2019-01-21T09:31:49.329Z,32.23
2019-01-21T09:35:16.814Z,34.10
2019-01-21T09:38:25.481Z,27.50
2019-01-21T09:41:35.193Z,29.15
2019-01-21T09:44:45.267Z,34.67
2019-01-21T09:47:33.025Z,35.80
2019-01-21T09:50:21.831Z,29.80
2019-01-21T09:53:10.699Z,36.47
2019-01-21T09:55:59.529Z,36.90
2019-01-21T10:02:38.215Z,30.25
2019-01-21T10:05:47.942Z,30.37
2019-01-21T10:09:15.451Z,45.17
2019-01-21T10:12:42.940Z,37.70
2019-01-21T10:15:52.710Z,41.37
2019-01-21T10:19:20.212Z,36.90
2019-01-21T10:22:29.932Z,41.60
2019-01-21T10:25:57.417Z,45.67
2019-01-21T10:29:24.931Z,36.97
2019-01-21T10:32:52.450Z,42.65
2019-01-21T10:36:02.148Z,36.33
2019-01-21T10:39:04.015Z,39.23
2019-01-21T10:42:31.505Z,42.53
2019-01-21T10:45:59.062Z,54.25
2019-01-21T10:49:08.768Z,42.17
2019-01-21T10:52:36.273Z,41.75
2019-01-21T10:56:03.780Z,40.20
2019-01-21T10:59:13.848Z,37.63
2019-01-21T11:02:23.548Z,40.33
2019-01-21T11:05:33.287Z,41.50
2019-01-21T11:09:00.781Z,48.05
2019-01-21T11:12:10.508Z,44.83
2019-01-21T11:15:20.235Z,62.40
2019-01-21T11:18:47.742Z,53.10
2019-01-21T11:21:57.447Z,51.90
2019-01-21T11:25:07.175Z,52.93
2019-01-21T11:28:34.665Z,54.57
2019-01-21T11:32:02.184Z,51.98
2019-01-21T11:35:11.911Z,52.00
2019-01-21T11:38:21.901Z,52.53
2019-01-21T11:41:04.969Z,35.47
2019-01-21T11:44:32.478Z,42.57
2019-01-21T11:47:42.176Z,35.90
2019-01-21T11:51:09.750Z,41.10
2019-01-21T11:54:37.311Z,37.77
2019-01-21T11:58:04.811Z,45.13
2019-01-21T12:01:32.294Z,32.67
2019-01-21T12:04:42.051Z,44.73
2019-01-21T12:07:51.804Z,36.77
2019-01-21T12:11:19.296Z,35.70
2019-01-21T12:14:46.809Z,50.03
2019-01-21T12:18:14.311Z,46.33
2019-01-21T12:21:41.793Z,48.67
2019-01-21T12:24:30.667Z,63.53
2019-01-21T12:27:40.389Z,55.67
2019-01-21T12:30:50.137Z,42.87
2019-01-21T12:34:17.641Z,40.80
2019-01-21T12:37:45.136Z,41.20
2019-01-21T12:40:46.642Z,33.20
2019-01-21T12:44:14.187Z,40.47
2019-01-21T12:47:23.883Z,40.90
2019-01-21T12:50:51.381Z,38.10
2019-01-21T12:54:01.081Z,36.07
2019-01-21T12:57:28.580Z,38.50
2019-01-21T13:00:56.061Z,41.47
2019-01-21T13:04:23.585Z,30.77
2019-01-21T13:07:33.300Z,32.47
2019-01-21T13:10:43.013Z,43.30
2019-01-21T13:13:52.712Z,39.23
2019-01-21T13:17:20.208Z,41.57
2019-01-21T13:20:30.709Z,38.50
2019-01-21T13:23:41.353Z,36.53
2019-01-21T13:26:51.073Z,33.57
2019-01-21T13:30:02.381Z,34.70
2019-01-21T13:33:12.221Z,39.27
2019-01-21T13:36:21.989Z,34.70
2019-01-21T13:39:31.689Z,29.90
2019-01-21T13:42:14.919Z,34.10
2019-01-21T13:45:42.391Z,33.17
2019-01-21T13:48:52.109Z,36.13
2019-01-21T13:52:01.805Z,31.17
2019-01-21T13:55:11.531Z,32.93
2019-01-21T13:58:21.315Z,35.47
2019-01-21T14:01:48.793Z,30.50
2019-01-21T14:05:16.291Z,31.40
2019-01-21T14:08:43.795Z,33.23
2019-01-21T14:12:11.292Z,33.07
2019-01-21T14:15:38.775Z,30.43
2019-01-21T14:19:06.581Z,36.90
2019-01-21T14:22:34.064Z,36.80
2019-01-21T14:26:01.557Z,38.57
2019-01-21T14:29:03.055Z,35.07
2019-01-21T14:32:12.754Z,36.87
2019-01-21T14:35:40.256Z,28.67
2019-01-21T14:38:49.999Z,31.80
2019-01-21T14:41:57.943Z,32.43
2019-01-21T14:45:25.445Z,33.30
2019-01-21T14:48:53.192Z,31.67
2019-01-21T14:52:02.893Z,35.47
2019-01-21T14:55:30.415Z,33.37
2019-01-21T14:58:57.911Z,31.77
2019-01-21T15:02:25.404Z,30.87
2019-01-21T15:05:35.086Z,27.57
2019-01-21T15:08:44.857Z,30.30
2019-01-21T15:12:12.376Z,35.90
2019-01-21T15:15:39.931Z,39.40
2019-01-21T15:18:49.692Z,37.10
2019-01-21T15:22:17.240Z,38.47
2019-01-21T15:25:26.973Z,33.70
2019-01-21T15:28:28.115Z,30.27
2019-01-21T15:31:37.897Z,43.03
2019-01-21T15:34:47.912Z,41.08
2019-01-21T15:38:15.854Z,36.60
2019-01-21T15:41:43.460Z,33.00
2019-01-21T15:45:10.987Z,37.97
2019-01-21T15:48:38.500Z,40.10
2019-01-21T15:51:48.199Z,42.27
2019-01-21T15:54:57.931Z,35.43
2019-01-21T15:58:25.413Z,46.87
2019-01-21T16:01:52.911Z,45.77
2019-01-21T16:05:02.616Z,40.90
2019-01-21T16:08:12.324Z,42.20
2019-01-21T16:11:39.830Z,42.50
2019-01-21T16:14:49.550Z,47.50
2019-01-21T16:18:17.034Z,34.47
2019-01-21T16:21:27.097Z,38.42
2019-01-21T16:24:54.565Z,41.00
2019-01-21T16:28:04.301Z,46.40
2019-01-21T16:30:47.191Z,42.67
2019-01-21T16:33:56.949Z,36.93
2019-01-21T16:37:06.727Z,35.83
2019-01-21T16:40:16.431Z,39.48
2019-01-21T16:43:05.313Z,42.87
2019-01-21T16:45:54.119Z,44.50
2019-01-21T16:48:42.931Z,40.10
2019-01-21T16:51:31.737Z,49.83
2019-01-21T16:54:20.555Z,42.17
2019-01-21T17:00:17.192Z,53.80
2019-01-21T17:03:06.010Z,47.13
2019-01-21T17:05:54.832Z,44.65
2019-01-21T17:08:43.639Z,58.90
2019-01-21T17:11:32.455Z,65.65
2019-01-21T17:14:21.269Z,62.23
2019-01-21T17:20:00.608Z,44.20
2019-01-21T17:22:49.401Z,44.70
2019-01-21T17:25:38.220Z,44.13
2019-01-21T17:28:27.085Z,48.58
2019-01-21T17:31:15.899Z,42.80
2019-01-21T17:34:04.765Z,48.93
2019-01-21T17:36:53.619Z,56.70
2019-01-21T17:39:42.420Z,53.10
2019-01-21T17:42:31.242Z,47.93
2019-01-21T17:48:29.521Z,52.70
2019-01-21T17:51:18.386Z,59.63
2019-01-21T17:57:02.019Z,56.83
2019-01-21T17:59:50.837Z,44.60
2019-01-21T18:02:39.656Z,45.83
2019-01-21T18:08:36.223Z,52.17
2019-01-21T18:11:25.022Z,57.17
2019-01-21T18:14:13.834Z,53.70
2019-01-21T18:17:02.629Z,52.80
2019-01-21T18:19:51.449Z,49.18
2019-01-21T18:22:40.501Z,51.40
2019-01-21T18:25:29.605Z,61.88
2019-01-21T18:28:18.406Z,57.80
2019-01-21T18:31:00.237Z,58.25
2019-01-21T18:33:49.072Z,66.10
2019-01-21T18:36:57.274Z,59.55
2019-01-21T18:39:46.513Z,67.78
2019-01-21T18:45:30.289Z,65.17
2019-01-21T18:51:26.935Z,86.82
2019-01-21T18:54:15.902Z,87.13
2019-01-21T18:57:04.845Z,75.40
2019-01-21T18:59:53.741Z,76.80
2019-01-21T19:02:43.406Z,77.92
2019-01-21T19:05:33.368Z,73.67
2019-01-21T19:08:41.394Z,61.83
2019-01-21T19:11:30.445Z,56.20
2019-01-21T19:14:19.370Z,67.07
2019-01-21T19:17:08.679Z,65.78
2019-01-21T19:19:57.487Z,65.90
2019-01-21T19:22:46.502Z,73.00
2019-01-21T19:25:35.699Z,66.97
2019-01-21T19:28:44.043Z,67.63
2019-01-21T19:31:26.656Z,54.67
2019-01-21T19:44:35.239Z,54.77
2019-01-21T19:51:01.268Z,61.48
2019-01-21T20:03:59.940Z,67.10
2019-01-21T20:06:57.354Z,46.00
2019-01-21T20:09:31.359Z,57.25
2019-01-21T20:12:53.682Z,56.05
2019-01-21T20:29:07.083Z,60.40
2019-01-21T20:31:37.247Z,60.73
2019-01-21T20:35:01.275Z,87.03
2019-01-21T20:41:40.183Z,45.67
2019-01-21T20:51:20.058Z,64.45
2019-01-21T20:54:44.683Z,60.30
2019-01-21T21:04:27.059Z,54.33
2019-01-21T21:11:05.564Z,57.27
2019-01-21T21:14:16.185Z,60.37
2019-01-21T21:20:22.072Z,55.50
2019-01-21T21:26:18.799Z,63.95
2019-01-21T21:29:07.636Z,57.73
2019-01-21T21:31:49.443Z,58.78
2019-01-21T21:34:57.384Z,65.12
2019-01-21T21:37:46.207Z,57.63
2019-01-21T21:40:35.010Z,63.78
2019-01-21T21:43:30.699Z,61.27
2019-01-21T21:46:19.500Z,56.08
2019-01-21T21:49:08.334Z,64.33
2019-01-21T21:52:16.768Z,55.48
2019-01-21T21:55:26.491Z,67.05
2019-01-21T21:58:15.302Z,57.93
2019-01-21T22:04:18.869Z,52.33
2019-01-21T22:07:08.557Z,48.08
2019-01-21T22:09:57.357Z,56.63
2019-01-21T22:12:46.175Z,57.83
2019-01-21T22:15:53.994Z,59.95
2019-01-21T22:18:42.817Z,60.97
2019-01-21T22:21:31.608Z,61.00
2019-01-21T22:24:39.468Z,66.00
2019-01-21T22:27:28.268Z,58.17
2019-01-21T22:30:38.004Z,49.33
2019-01-21T22:33:26.844Z,56.43
2019-01-21T22:36:15.677Z,64.15
2019-01-21T22:39:25.400Z,52.15
2019-01-21T22:42:14.221Z,58.63
2019-01-21T22:45:22.159Z,56.77
2019-01-21T22:48:10.975Z,52.83
2019-01-21T22:50:59.806Z,47.53
2019-01-21T22:53:48.591Z,55.10
2019-01-21T22:56:37.399Z,54.73
2019-01-21T22:59:26.193Z,50.77
2019-01-21T23:02:15.018Z,56.15
2019-01-21T23:05:24.739Z,55.30
2019-01-21T23:08:13.531Z,52.55
2019-01-21T23:11:02.351Z,46.53
2019-01-21T23:13:51.151Z,51.47
2019-01-21T23:16:59.170Z,57.53
2019-01-21T23:19:47.989Z,50.88
2019-01-21T23:22:36.792Z,52.40
2019-01-21T23:25:25.606Z,48.33
2019-01-21T23:28:08.489Z,49.73
2019-01-21T23:30:57.295Z,47.48
2019-01-21T23:33:46.096Z,50.67
2019-01-21T23:36:34.907Z,60.90
2019-01-21T23:39:25.422Z,50.73
2019-01-21T23:42:14.307Z,50.65
2019-01-21T23:45:25.731Z,49.20
2019-01-21T23:48:14.548Z,52.20
2019-01-21T23:54:11.112Z,48.23
2019-01-21T23:57:00.207Z,51.20
2019-01-21T23:59:50.742Z,44.93
